Time;durP1;ratioP1;P1;durP2;ratioP2;P2;SDS_P1;SDS_P2;PMS_P1;PMS_P2;Temp;Humidity;BMP_temperature;BMP_pressure;BME280_temperature;BME280_humidity;BME280_pressure;Samples;Min_cycle;Max_cycle;Signal;HPM_P1;HPM_P2
2022/07/31 00:00:29;;;;;;;8.38;5.30;;;18.90;95.80;;;;;;4953650;29;20051;-54
2022/07/31 00:02:56;;;;;;;9.40;4.90;;;18.90;96.20;;;;;;4953677;28;20030;-52
2022/07/31 00:05:23;;;;;;;11.63;5.75;;;18.90;96.60;;;;;;4954926;28;20019;-53
2022/07/31 00:07:48;;;;;;;11.88;7.63;;;19.00;96.60;;;;;;4958480;29;20037;-49
2022/07/31 00:10:14;;;;;;;4.45;2.80;;;19.00;97.30;;;;;;4957254;29;20035;-52
2022/07/31 00:12:40;;;;;;;7.20;2.65;;;19.00;97.30;;;;;;4959009;29;20081;-50
2022/07/31 00:15:08;;;;;;;2.60;2.10;;;18.90;97.40;;;;;;4958577;29;20019;-54
2022/07/31 00:17:34;;;;;;;7.75;5.40;;;18.90;97.90;;;;;;4958244;29;20041;-50
2022/07/31 00:20:00;;;;;;;9.25;5.07;;;18.90;98.50;;;;;;4958514;29;20027;-52
2022/07/31 00:22:26;;;;;;;8.25;4.70;;;18.70;99.40;;;;;;4956976;29;20027;-48
2022/07/31 00:24:52;;;;;;;5.47;3.72;;;18.70;99.90;;;;;;4957016;29;20030;-55
2022/07/31 00:27:17;;;;;;;5.53;3.20;;;18.70;99.90;;;;;;4957622;29;20031;-51
2022/07/31 00:29:43;;;;;;;6.82;3.40;;;18.70;99.90;;;;;;4958094;29;20470;-51
2022/07/31 00:32:10;;;;;;;4.03;2.80;;;18.80;99.90;;;;;;4958010;29;20031;-51
2022/07/31 00:34:35;;;;;;;3.72;2.90;;;18.80;99.90;;;;;;4958152;29;20027;-51
2022/07/31 00:37:01;;;;;;;3.83;2.80;;;18.80;99.90;;;;;;4957920;29;20030;-49
2022/07/31 00:39:27;;;;;;;3.50;2.60;;;18.90;99.90;;;;;;4957901;29;20059;-51
2022/07/31 00:41:53;;;;;;;5.03;3.20;;;18.90;99.90;;;;;;4956963;29;20075;-52
2022/07/31 00:44:20;;;;;;;12.77;5.80;;;18.90;99.90;;;;;;4957955;29;20019;-50
2022/07/31 00:46:46;;;;;;;6.75;4.30;;;19.00;99.90;;;;;;4956686;29;20026;-48
2022/07/31 00:49:11;;;;;;;4.30;3.25;;;19.00;99.90;;;;;;4956527;29;20027;-49
2022/07/31 00:51:38;;;;;;;5.07;2.40;;;18.90;99.90;;;;;;4958330;29;20059;-54
2022/07/31 00:54:05;;;;;;;4.38;2.80;;;18.90;99.90;;;;;;4957727;29;20482;-48
2022/07/31 00:56:30;;;;;;;4.10;2.47;;;18.80;99.90;;;;;;4956378;29;20035;-49
2022/07/31 00:58:56;;;;;;;5.03;2.72;;;18.80;99.90;;;;;;4957469;29;20030;-50
2022/07/31 01:01:22;;;;;;;7.88;2.72;;;18.80;99.90;;;;;;4956357;29;20021;-52
2022/07/31 01:03:48;;;;;;;5.95;4.00;;;18.70;99.90;;;;;;4957517;29;20027;-49
2022/07/31 01:06:14;;;;;;;9.70;4.88;;;18.70;99.90;;;;;;4957398;29;20065;-51
2022/07/31 01:08:40;;;;;;;7.20;3.00;;;18.70;99.90;;;;;;4957406;29;20118;-52
2022/07/31 01:11:40;;;;;;;4.15;2.90;;;18.70;99.90;;;;;;4957354;29;20074;-55
2022/07/31 01:14:08;;;;;;;5.25;2.90;;;18.70;99.90;;;;;;4956136;29;20066;-52
2022/07/31 01:16:39;;;;;;;6.88;3.10;;;18.60;99.90;;;;;;4957747;28;20045;-51
2022/07/31 01:19:17;;;;;;;5.00;3.15;;;18.60;99.90;;;;;;4955992;29;20070;-54
2022/07/31 01:21:55;;;;;;;2.60;2.40;;;18.50;99.90;;;;;;4955880;28;20023;-53
2022/07/31 01:24:44;;;;;;;3.38;2.53;;;18.40;99.90;;;;;;4957409;29;20114;-50
2022/07/31 01:27:35;;;;;;;5.25;2.78;;;18.40;99.90;;;;;;4957115;29;20027;-48
2022/07/31 01:30:02;;;;;;;4.37;2.90;;;18.30;99.90;;;;;;4955406;29;20058;-55
2022/07/31 01:32:34;;;;;;;4.75;3.00;;;18.30;99.90;;;;;;4955705;28;20027;-51
2022/07/31 01:35:18;;;;;;;5.95;2.90;;;18.20;99.90;;;;;;4956605;29;20023;-52
2022/07/31 01:38:00;;;;;;;4.90;2.80;;;18.20;99.90;;;;;;4956427;29;20031;-52
2022/07/31 01:40:34;;;;;;;7.55;3.10;;;18.10;99.90;;;;;;4955697;29;20023;-50
2022/07/31 01:43:22;;;;;;;4.57;3.00;;;18.10;99.90;;;;;;4956821;29;20027;-51
2022/07/31 01:45:52;;;;;;;4.88;3.00;;;18.10;99.90;;;;;;4955651;29;20028;-52
2022/07/31 01:48:18;;;;;;;6.43;3.10;;;18.00;99.90;;;;;;4956842;29;20046;-54
2022/07/31 01:50:48;;;;;;;4.45;2.80;;;18.00;99.90;;;;;;4956826;29;20035;-54
2022/07/31 01:53:23;;;;;;;4.53;3.10;;;17.90;99.90;;;;;;4956910;29;20037;-52
2022/07/31 01:55:51;;;;;;;10.68;2.97;;;17.90;99.90;;;;;;4956572;29;20070;-50
2022/07/31 01:58:19;;;;;;;8.98;3.05;;;17.90;99.90;;;;;;4955220;29;20065;-49
2022/07/31 02:00:47;;;;;;;3.83;2.72;;;17.90;99.90;;;;;;4956740;29;20023;-50
2022/07/31 02:03:15;;;;;;;7.15;3.20;;;17.90;99.90;;;;;;4971312;28;20019;-48
2022/07/31 02:05:42;;;;;;;4.30;2.92;;;17.80;99.90;;;;;;4956442;29;20019;-48
2022/07/31 02:08:10;;;;;;;8.48;2.92;;;17.80;99.90;;;;;;4955355;29;20038;-50
2022/07/31 02:10:37;;;;;;;5.43;3.63;;;17.80;99.90;;;;;;4956551;29;20028;-48
2022/07/31 02:13:04;;;;;;;4.35;3.00;;;17.70;99.90;;;;;;4956764;29;20057;-49
2022/07/31 02:15:31;;;;;;;9.38;3.95;;;17.70;99.90;;;;;;4956133;29;20023;-50
2022/07/31 02:17:59;;;;;;;4.10;3.10;;;17.70;99.90;;;;;;4971514;28;20031;-52
2022/07/31 02:20:26;;;;;;;3.67;3.05;;;17.70;99.90;;;;;;4971268;28;20032;-51
2022/07/31 02:22:53;;;;;;;4.68;3.10;;;17.70;99.90;;;;;;4956083;29;20042;-50
2022/07/31 02:25:19;;;;;;;5.35;3.60;;;17.70;99.90;;;;;;4954719;28;20027;-50
2022/07/31 02:27:46;;;;;;;7.25;3.13;;;17.80;99.90;;;;;;4955885;28;20046;-48
2022/07/31 02:30:14;;;;;;;5.00;3.42;;;17.80;99.90;;;;;;4955378;29;20069;-52
2022/07/31 02:32:41;;;;;;;7.22;3.28;;;17.80;99.90;;;;;;4954585;29;20042;-51
2022/07/31 02:35:07;;;;;;;5.25;3.33;;;17.80;99.90;;;;;;4955902;29;20034;-52
2022/07/31 02:37:36;;;;;;;6.60;3.45;;;17.80;99.90;;;;;;4954463;29;20087;-48
2022/07/31 02:40:03;;;;;;;6.63;2.78;;;17.80;99.90;;;;;;4956080;29;20055;-52
2022/07/31 02:42:29;;;;;;;4.78;3.05;;;17.70;99.90;;;;;;4954770;29;20034;-50
2022/07/31 02:44:56;;;;;;;4.10;3.10;;;17.70;99.90;;;;;;4955761;29;20031;-49
2022/07/31 02:47:22;;;;;;;4.32;3.10;;;17.70;99.90;;;;;;4954466;29;20023;-53
2022/07/31 02:49:49;;;;;;;4.20;3.40;;;17.70;99.90;;;;;;4970342;28;20494;-50
2022/07/31 02:52:15;;;;;;;4.20;2.97;;;17.80;99.90;;;;;;4954698;29;20035;-51
2022/07/31 02:54:43;;;;;;;4.00;2.70;;;17.80;99.90;;;;;;4954327;29;20052;-49
2022/07/31 02:57:09;;;;;;;4.00;2.60;;;17.80;99.90;;;;;;4954305;29;20039;-53
2022/07/31 02:59:38;;;;;;;3.40;2.78;;;17.80;99.90;;;;;;4955475;29;20066;-52
2022/07/31 03:02:05;;;;;;;5.43;3.15;;;17.70;99.90;;;;;;4955338;28;20038;-52
2022/07/31 03:04:31;;;;;;;5.97;3.08;;;17.70;99.90;;;;;;4954542;29;20054;-50
2022/07/31 03:06:56;;;;;;;4.07;3.40;;;17.60;99.90;;;;;;4955028;29;20023;-51
2022/07/31 03:09:22;;;;;;;5.05;2.65;;;17.60;99.90;;;;;;4955348;29;20023;-48
2022/07/31 03:11:48;;;;;;;7.72;3.17;;;17.60;99.90;;;;;;4954174;29;20027;-50
2022/07/31 03:14:14;;;;;;;5.25;3.17;;;17.60;99.90;;;;;;4970575;28;20509;-50
2022/07/31 03:16:41;;;;;;;4.75;3.15;;;17.50;99.90;;;;;;4955254;29;20039;-49
2022/07/31 03:19:08;;;;;;;4.10;2.85;;;17.50;99.90;;;;;;4955162;29;20024;-51
2022/07/31 03:21:34;;;;;;;6.75;3.50;;;17.50;99.90;;;;;;4970117;28;20110;-50
2022/07/31 03:24:01;;;;;;;5.18;3.30;;;17.40;99.90;;;;;;4955176;29;20047;-51
2022/07/31 03:26:28;;;;;;;6.35;2.70;;;17.30;99.90;;;;;;4954797;29;20023;-54
2022/07/31 03:28:53;;;;;;;4.10;3.00;;;17.30;99.90;;;;;;4955094;29;20023;-49
2022/07/31 03:31:19;;;;;;;4.70;2.90;;;17.20;99.90;;;;;;4953951;29;20517;-50
2022/07/31 03:33:45;;;;;;;4.65;3.50;;;17.20;99.90;;;;;;4955517;29;20034;-51
2022/07/31 03:36:14;;;;;;;10.55;3.83;;;17.20;99.90;;;;;;4955339;29;20062;-52
2022/07/31 03:38:40;;;;;;;6.03;3.17;;;17.10;99.90;;;;;;4954934;29;20039;-50
2022/07/31 03:41:05;;;;;;;4.60;3.05;;;17.10;99.90;;;;;;4956746;28;20093;-55
2022/07/31 03:43:32;;;;;;;5.50;3.30;;;17.10;99.90;;;;;;4958969;29;20102;-50
2022/07/31 03:45:59;;;;;;;5.53;3.70;;;17.20;99.90;;;;;;4957692;29;20482;-50
2022/07/31 03:48:26;;;;;;;5.07;3.13;;;17.20;99.90;;;;;;4957692;29;20041;-51
2022/07/31 03:50:52;;;;;;;4.15;2.90;;;17.20;99.90;;;;;;4958655;29;20042;-48
2022/07/31 03:53:20;;;;;;;7.18;3.75;;;17.20;99.90;;;;;;4958730;29;20027;-53
2022/07/31 03:55:47;;;;;;;5.28;3.88;;;17.20;99.90;;;;;;4957501;29;20042;-54
2022/07/31 03:58:13;;;;;;;7.70;4.00;;;17.10;99.90;;;;;;4957386;29;20031;-53
2022/07/31 04:00:40;;;;;;;3.67;3.33;;;17.10;99.90;;;;;;4958588;29;20066;-50
2022/07/31 04:03:08;;;;;;;5.38;3.30;;;17.10;99.90;;;;;;4957409;29;20031;-49
2022/07/31 04:05:34;;;;;;;4.15;2.95;;;17.10;99.90;;;;;;4957381;29;20031;-54
2022/07/31 04:08:00;;;;;;;6.20;3.35;;;17.20;99.90;;;;;;4958433;29;20154;-51
2022/07/31 04:10:26;;;;;;;5.70;3.30;;;17.20;99.90;;;;;;4958070;29;20074;-48
2022/07/31 04:12:52;;;;;;;5.60;3.80;;;17.30;99.90;;;;;;4958686;29;20038;-53
2022/07/31 04:15:17;;;;;;;6.35;3.40;;;17.30;99.90;;;;;;4957218;29;20027;-54
2022/07/31 04:17:43;;;;;;;3.35;2.92;;;17.40;99.90;;;;;;4957017;29;20027;-52
2022/07/31 04:20:10;;;;;;;4.05;3.00;;;17.60;99.90;;;;;;4973074;28;20019;-50
2022/07/31 04:22:36;;;;;;;5.65;2.95;;;17.90;99.90;;;;;;4957379;29;20081;-49
2022/07/31 04:25:03;;;;;;;4.63;3.08;;;18.20;99.90;;;;;;4958253;29;20031;-52
2022/07/31 04:27:28;;;;;;;5.07;3.13;;;18.30;99.90;;;;;;4958144;29;20027;-53
2022/07/31 04:29:54;;;;;;;4.60;3.10;;;18.40;99.90;;;;;;4957720;29;20513;-49
2022/07/31 04:32:20;;;;;;;4.22;3.15;;;18.40;99.90;;;;;;4956875;28;20024;-50
2022/07/31 04:34:46;;;;;;;7.13;3.38;;;18.40;99.90;;;;;;4956730;29;20031;-51
2022/07/31 04:37:11;;;;;;;5.38;3.33;;;18.20;99.90;;;;;;4972725;28;20090;-48
2022/07/31 04:39:37;;;;;;;4.40;3.00;;;18.20;99.90;;;;;;4956915;29;20181;-48
2022/07/31 04:42:04;;;;;;;8.75;3.30;;;18.30;99.90;;;;;;4957959;29;20023;-53
2022/07/31 04:44:30;;;;;;;12.52;3.00;;;18.30;99.90;;;;;;4956785;28;20410;-51
2022/07/31 04:47:00;;;;;;;14.00;3.50;;;18.40;99.90;;;;;;4956742;29;20502;-52
2022/07/31 04:49:26;;;;;;;6.97;3.13;;;18.50;99.90;;;;;;4956510;29;20061;-48
2022/07/31 04:51:52;;;;;;;6.07;2.95;;;18.50;99.90;;;;;;4957060;28;20051;-48
2022/07/31 04:54:17;;;;;;;5.60;3.60;;;18.50;99.90;;;;;;4956832;29;20062;-48
2022/07/31 04:56:43;;;;;;;4.22;3.40;;;18.60;99.90;;;;;;4957407;29;20114;-48
2022/07/31 04:59:12;;;;;;;4.13;2.97;;;18.60;99.90;;;;;;4957261;29;20114;-49
2022/07/31 05:01:39;;;;;;;12.45;3.58;;;18.70;99.90;;;;;;4956650;29;20163;-48
2022/07/31 05:04:07;;;;;;;5.30;3.55;;;18.90;99.90;;;;;;4957857;29;20478;-48
2022/07/31 05:06:38;;;;;;;6.60;4.00;;;19.00;99.90;;;;;;4957554;29;20078;-51
2022/07/31 05:09:06;;;;;;;6.97;4.20;;;19.10;99.90;;;;;;4957402;29;20501;-49
2022/07/31 05:11:32;;;;;;;5.72;3.45;;;19.20;99.90;;;;;;4957602;29;20028;-51
2022/07/31 05:13:59;;;;;;;3.55;3.20;;;19.30;99.90;;;;;;4956154;29;20027;-49
2022/07/31 05:16:26;;;;;;;4.25;3.60;;;19.40;99.90;;;;;;4956127;29;20031;-52
2022/07/31 05:18:52;;;;;;;4.72;3.50;;;19.50;99.90;;;;;;4957132;29;20125;-51
2022/07/31 05:21:18;;;;;;;6.25;3.58;;;19.60;99.90;;;;;;4957081;29;20039;-49
2022/07/31 05:23:45;;;;;;;5.90;3.55;;;19.60;99.90;;;;;;4956695;29;20035;-50
2022/07/31 05:26:12;;;;;;;4.72;3.20;;;19.70;99.90;;;;;;4956769;29;20035;-49
2022/07/31 05:28:38;;;;;;;7.55;3.42;;;19.70;99.90;;;;;;4956664;29;20038;-49
2022/07/31 05:31:05;;;;;;;4.55;3.38;;;19.70;99.90;;;;;;4956852;29;20431;-51
2022/07/31 05:33:32;;;;;;;3.38;2.92;;;19.90;99.90;;;;;;4955881;29;20027;-49
2022/07/31 05:35:59;;;;;;;4.70;3.78;;;19.90;99.90;;;;;;4957306;29;20106;-50
2022/07/31 05:38:25;;;;;;;8.00;4.03;;;19.90;99.90;;;;;;4957036;29;20143;-49
2022/07/31 05:40:51;;;;;;;4.35;3.40;;;20.00;99.90;;;;;;4956941;29;20031;-54
2022/07/31 05:43:17;;;;;;;3.58;3.10;;;20.10;99.90;;;;;;4955973;28;20023;-51
2022/07/31 05:45:43;;;;;;;3.08;2.78;;;20.20;99.90;;;;;;4956220;28;20023;-52
2022/07/31 05:48:08;;;;;;;4.25;2.80;;;20.20;99.90;;;;;;4955494;28;20106;-49
2022/07/31 05:50:34;;;;;;;4.93;3.30;;;20.30;99.90;;;;;;4956584;29;20069;-50
2022/07/31 05:53:00;;;;;;;4.32;3.88;;;20.40;99.90;;;;;;4955558;29;20027;-51
2022/07/31 05:55:26;;;;;;;6.13;2.97;;;20.50;99.90;;;;;;4955515;29;20031;-49
2022/07/31 05:57:52;;;;;;;9.57;3.33;;;20.70;99.90;;;;;;4956183;29;20117;-49
2022/07/31 06:00:19;;;;;;;5.85;3.20;;;20.80;99.90;;;;;;4955348;29;20026;-50
2022/07/31 06:02:45;;;;;;;4.88;3.60;;;20.80;99.90;;;;;;4955774;28;20077;-50
2022/07/31 06:05:11;;;;;;;4.57;3.40;;;20.80;99.90;;;;;;4955928;29;20030;-49
2022/07/31 06:07:37;;;;;;;5.18;3.53;;;20.70;99.90;;;;;;4955212;29;20023;-49
2022/07/31 06:10:04;;;;;;;5.22;3.15;;;20.70;99.90;;;;;;4955404;29;20375;-48
2022/07/31 06:12:29;;;;;;;6.35;2.92;;;20.80;99.90;;;;;;4956666;29;20031;-49
2022/07/31 06:14:55;;;;;;;3.80;3.10;;;20.90;99.90;;;;;;4956290;29;20038;-48
2022/07/31 06:17:21;;;;;;;3.55;2.88;;;21.00;99.90;;;;;;4955452;29;20118;-50
2022/07/31 06:19:47;;;;;;;3.70;2.85;;;20.90;99.90;;;;;;4956178;29;20106;-49
2022/07/31 06:22:22;;;;;;;5.95;3.40;;;21.00;99.90;;;;;;4955160;28;20114;-53
2022/07/31 06:24:47;;;;;;;4.90;4.00;;;20.90;99.90;;;;;;4954892;29;20356;-51
2022/07/31 06:27:13;;;;;;;10.07;3.58;;;21.00;99.90;;;;;;4954921;29;20479;-52
2022/07/31 06:29:38;;;;;;;6.13;3.30;;;21.00;99.90;;;;;;4954824;29;20027;-51
2022/07/31 06:32:04;;;;;;;9.25;4.07;;;20.90;99.90;;;;;;4955018;29;20098;-51
2022/07/31 06:34:30;;;;;;;4.35;2.90;;;20.70;99.90;;;;;;4954678;29;20486;-54
2022/07/31 06:36:56;;;;;;;4.28;3.03;;;20.60;99.90;;;;;;4954576;29;20086;-49
2022/07/31 06:39:21;;;;;;;5.60;3.25;;;20.60;99.90;;;;;;4970672;28;20106;-48
2022/07/31 06:41:47;;;;;;;5.25;3.38;;;20.50;99.90;;;;;;4955801;29;20020;-51
2022/07/31 06:44:14;;;;;;;4.82;3.30;;;20.50;99.90;;;;;;4956001;29;20034;-50
2022/07/31 06:46:39;;;;;;;4.38;2.88;;;20.70;99.90;;;;;;4955773;28;20103;-48
2022/07/31 06:49:05;;;;;;;3.95;2.92;;;20.90;99.90;;;;;;4955956;29;20122;-50
2022/07/31 06:51:31;;;;;;;6.30;3.72;;;20.90;99.90;;;;;;4954614;29;20069;-50
2022/07/31 06:54:01;;;;;;;4.60;3.10;;;20.90;99.90;;;;;;4955694;29;20060;-48
2022/07/31 06:56:30;;;;;;;6.10;3.20;;;21.00;99.90;;;;;;4954976;28;20055;-49
2022/07/31 06:58:56;;;;;;;3.70;3.15;;;21.20;99.90;;;;;;4970958;28;20105;-52
2022/07/31 07:01:22;;;;;;;8.80;3.67;;;21.30;99.90;;;;;;4954321;29;20020;-49
2022/07/31 07:03:48;;;;;;;4.10;3.47;;;21.20;99.90;;;;;;4955399;29;20070;-50
2022/07/31 07:06:13;;;;;;;5.93;3.80;;;21.10;99.90;;;;;;4955477;29;20486;-48
2022/07/31 07:08:39;;;;;;;6.53;3.42;;;21.00;99.90;;;;;;4954258;29;20023;-51
2022/07/31 07:11:05;;;;;;;3.70;2.92;;;21.20;99.90;;;;;;4954094;29;20126;-50
2022/07/31 07:13:31;;;;;;;6.53;3.80;;;21.40;99.90;;;;;;4954421;29;20030;-53
2022/07/31 07:15:56;;;;;;;5.03;3.60;;;21.50;99.90;;;;;;4969881;28;20030;-52
2022/07/31 07:18:22;;;;;;;5.70;3.70;;;21.70;99.90;;;;;;4953903;29;20034;-55
2022/07/31 07:20:49;;;;;;;6.65;4.05;;;21.90;99.90;;;;;;4954034;29;20023;-50
2022/07/31 07:23:14;;;;;;;7.72;3.88;;;22.00;99.90;;;;;;4954013;29;20382;-53
2022/07/31 07:25:40;;;;;;;8.15;3.90;;;22.20;99.90;;;;;;4954014;28;20023;-53
2022/07/31 07:28:07;;;;;;;4.45;3.38;;;22.40;99.90;;;;;;4954295;29;20027;-49
2022/07/31 07:30:33;;;;;;;11.10;3.60;;;22.70;99.90;;;;;;4954096;29;20027;-51
2022/07/31 07:32:59;;;;;;;5.65;3.63;;;23.00;99.90;;;;;;4954153;28;20028;-53
2022/07/31 07:35:25;;;;;;;7.82;3.53;;;23.30;99.90;;;;;;4953936;29;20027;-54
2022/07/31 07:37:51;;;;;;;8.32;4.28;;;23.40;99.90;;;;;;4954997;29;20028;-51
2022/07/31 07:40:17;;;;;;;7.55;3.58;;;23.50;99.90;;;;;;4953884;28;20058;-53
2022/07/31 07:42:43;;;;;;;7.13;3.92;;;23.50;99.90;;;;;;4969941;28;20075;-52
2022/07/31 07:45:09;;;;;;;5.55;4.38;;;23.60;99.90;;;;;;4955125;29;20024;-53
2022/07/31 07:47:35;;;;;;;8.10;4.05;;;23.60;99.90;;;;;;4953900;29;20034;-51
2022/07/31 07:50:02;;;;;;;5.90;3.33;;;23.80;99.90;;;;;;4953839;29;20046;-51
2022/07/31 07:52:28;;;;;;;7.20;3.13;;;23.90;99.90;;;;;;4953832;29;20117;-55
2022/07/31 07:54:54;;;;;;;6.45;3.15;;;23.80;99.90;;;;;;4954935;29;20090;-50
2022/07/31 07:57:20;;;;;;;4.22;3.13;;;24.10;99.90;;;;;;4954986;29;20038;-50
2022/07/31 07:59:46;;;;;;;3.60;2.80;;;23.90;99.90;;;;;;4953666;29;20031;-52
2022/07/31 08:02:12;;;;;;;2.90;2.45;;;23.90;99.90;;;;;;4953680;29;20024;-51
2022/07/31 08:04:38;;;;;;;4.22;2.50;;;23.80;99.90;;;;;;4969780;28;20509;-49
2022/07/31 08:07:04;;;;;;;4.30;2.42;;;23.80;99.90;;;;;;4953716;29;20086;-50
2022/07/31 08:09:31;;;;;;;6.50;2.65;;;24.10;99.90;;;;;;4954745;29;20049;-48
2022/07/31 08:11:56;;;;;;;7.38;3.40;;;23.70;99.90;;;;;;4955211;29;20023;-49
2022/07/31 08:14:22;;;;;;;5.75;2.92;;;23.60;99.90;;;;;;4954504;29;20023;-48
2022/07/31 08:16:47;;;;;;;5.53;2.90;;;23.60;99.90;;;;;;4953420;29;20026;-48
2022/07/31 08:19:13;;;;;;;5.05;3.20;;;23.50;99.90;;;;;;4953499;29;20030;-50
2022/07/31 08:21:39;;;;;;;4.43;3.03;;;23.40;99.90;;;;;;4969967;28;20019;-49
2022/07/31 08:24:05;;;;;;;4.80;2.92;;;23.40;99.90;;;;;;4953761;28;20079;-52
2022/07/31 08:27:22;;;;;;;4.78;3.22;;;23.30;99.90;;;;;;4954002;28;20047;-52
2022/07/31 08:29:17;;;;;;;5.10;3.05;;;23.40;99.90;;;;;;4958058;29;20059;-50
2022/07/31 08:31:42;;;;;;;3.17;2.28;;;23.50;99.90;;;;;;4958237;29;20069;-52
2022/07/31 08:34:08;;;;;;;2.58;2.30;;;23.80;99.90;;;;;;4958140;29;20102;-50
2022/07/31 08:36:34;;;;;;;5.70;2.35;;;24.10;99.90;;;;;;4956934;29;20090;-53
2022/07/31 08:39:02;;;;;;;4.95;3.28;;;24.80;99.90;;;;;;4957140;29;20027;-51
2022/07/31 08:41:28;;;;;;;8.25;2.80;;;25.20;99.90;;;;;;4958075;29;20023;-49
2022/07/31 08:43:55;;;;;;;3.75;2.72;;;25.20;99.90;;;;;;4956972;29;20023;-51
2022/07/31 08:46:21;;;;;;;6.65;3.00;;;24.70;99.90;;;;;;4957996;29;20023;-50
2022/07/31 08:48:52;;;;;;;4.28;2.83;;;24.70;99.90;;;;;;4956892;29;20078;-48
2022/07/31 08:51:19;;;;;;;4.67;2.90;;;24.40;99.90;;;;;;4956671;29;20122;-49
2022/07/31 08:53:48;;;;;;;5.65;2.70;;;24.60;99.90;;;;;;4958041;29;20023;-50
2022/07/31 08:56:14;;;;;;;2.38;2.17;;;24.40;99.90;;;;;;4956524;29;20023;-51
2022/07/31 08:58:39;;;;;;;5.95;2.38;;;24.60;99.90;;;;;;4957599;29;20418;-48
2022/07/31 09:01:06;;;;;;;4.60;2.67;;;25.00;99.90;;;;;;4957674;29;20078;-49
2022/07/31 09:03:34;;;;;;;3.40;2.15;;;25.70;99.90;;;;;;4957676;29;20023;-53
2022/07/31 09:05:59;;;;;;;4.90;2.60;;;27.10;99.90;;;;;;4972502;28;20082;-49
2022/07/31 09:08:25;;;;;;;4.05;2.72;;;27.90;99.90;;;;;;4956212;29;20031;-52
2022/07/31 09:11:10;;;;;;;5.07;2.67;;;28.40;99.90;;;;;;4957211;29;20028;-52
2022/07/31 09:13:36;;;;;;;11.25;2.83;;;27.80;98.90;;;;;;4957134;29;20031;-54
2022/07/31 09:16:03;;;;;;;4.13;2.13;;;27.70;99.80;;;;;;4956386;28;20083;-55
2022/07/31 09:18:29;;;;;;;6.00;2.22;;;28.50;98.10;;;;;;4957191;29;20071;-53
2022/07/31 09:20:56;;;;;;;4.70;2.30;;;29.90;95.70;;;;;;4972483;28;20027;-52
2022/07/31 09:23:22;;;;;;;4.65;2.25;;;30.40;93.40;;;;;;4955987;29;20114;-53
2022/07/31 09:26:00;;;;;;;3.45;2.28;;;30.00;92.60;;;;;;4957247;28;20027;-49
2022/07/31 09:28:41;;;;;;;3.65;2.33;;;30.10;91.90;;;;;;4972096;28;20031;-54
2022/07/31 09:31:08;;;;;;;4.32;2.35;;;30.30;90.70;;;;;;4957171;29;20103;-51
2022/07/31 09:33:38;;;;;;;2.75;2.10;;;30.60;90.10;;;;;;4955859;29;20027;-49
2022/07/31 09:36:05;;;;;;;4.80;3.13;;;30.10;90.10;;;;;;4956211;29;20408;-50
2022/07/31 09:38:32;;;;;;;3.00;2.45;;;29.00;90.40;;;;;;4955777;28;20066;-48
2022/07/31 09:41:09;;;;;;;5.70;2.42;;;28.30;92.00;;;;;;4955649;29;20028;-48
2022/07/31 09:43:34;;;;;;;4.60;2.38;;;27.90;91.80;;;;;;4955673;29;20174;-49
2022/07/31 09:46:01;;;;;;;3.20;2.85;;;27.40;93.20;;;;;;4971650;28;20098;-52
2022/07/31 09:48:27;;;;;;;3.80;2.30;;;27.20;93.30;;;;;;4955513;28;20071;-54
2022/07/31 09:51:14;;;;;;;3.60;2.28;;;27.10;93.20;;;;;;4955525;29;20047;-50
2022/07/31 09:53:44;;;;;;;4.80;2.40;;;27.00;93.90;;;;;;4955828;29;20065;-50
2022/07/31 09:56:14;;;;;;;2.92;2.25;;;27.20;94.10;;;;;;4955355;29;20031;-53
2022/07/31 09:58:41;;;;;;;2.78;2.22;;;27.20;94.20;;;;;;4956620;29;20027;-52
2022/07/31 10:01:11;;;;;;;4.85;2.42;;;27.20;94.00;;;;;;4956892;29;20031;-50
2022/07/31 10:03:38;;;;;;;4.50;2.60;;;27.10;93.90;;;;;;4956057;29;20122;-50
2022/07/31 10:06:11;;;;;;;3.55;2.60;;;26.60;94.20;;;;;;4956769;29;20042;-55
2022/07/31 10:08:38;;;;;;;4.30;3.00;;;26.40;94.50;;;;;;4955136;29;20035;-50
2022/07/31 10:11:05;;;;;;;3.45;2.40;;;26.40;94.40;;;;;;4956368;29;20026;-54
2022/07/31 10:13:37;;;;;;;4.82;2.65;;;26.10;94.80;;;;;;4955080;29;20027;-50
2022/07/31 10:16:04;;;;;;;4.82;2.42;;;26.10;96.10;;;;;;4954954;28;20031;-50
2022/07/31 10:18:34;;;;;;;7.13;2.13;;;26.30;95.40;;;;;;4954905;29;20038;-52
2022/07/31 10:21:02;;;;;;;2.45;2.22;;;26.40;94.80;;;;;;4955620;29;20027;-52
2022/07/31 10:23:29;;;;;;;5.13;2.17;;;26.40;95.00;;;;;;4955018;29;20421;-58
2022/07/31 10:25:58;;;;;;;11.70;2.50;;;26.20;94.60;;;;;;4956216;29;20066;-55
2022/07/31 10:28:24;;;;;;;3.22;2.42;;;25.80;95.10;;;;;;4954921;29;20058;-54
2022/07/31 10:30:50;;;;;;;2.78;2.47;;;25.50;95.20;;;;;;4956427;29;20046;-51
2022/07/31 10:33:16;;;;;;;5.22;2.42;;;25.50;95.80;;;;;;4956354;29;20073;-50
2022/07/31 10:35:51;;;;;;;5.15;2.50;;;25.60;95.80;;;;;;4954796;28;20031;-54
2022/07/31 10:38:22;;;;;;;5.47;2.50;;;25.60;95.40;;;;;;4954647;29;20023;-50
2022/07/31 10:41:02;;;;;;;4.88;2.38;;;25.60;95.80;;;;;;4956158;29;20470;-50
2022/07/31 10:43:44;;;;;;;6.47;2.40;;;25.70;95.30;;;;;;4954626;29;20032;-50
2022/07/31 10:46:10;;;;;;;2.67;2.05;;;25.80;95.40;;;;;;4955123;29;20351;-50
2022/07/31 10:48:36;;;;;;;6.18;2.20;;;25.90;95.40;;;;;;4955723;29;20026;-52
2022/07/31 10:51:04;;;;;;;3.47;2.15;;;26.20;95.10;;;;;;4954111;28;20038;-51
2022/07/31 10:53:30;;;;;;;4.30;2.17;;;26.50;94.50;;;;;;4954513;28;20027;-50
2022/07/31 10:56:12;;;;;;;3.45;2.08;;;26.90;93.60;;;;;;4954400;28;20046;-51
2022/07/31 10:58:49;;;;;;;4.63;2.20;;;27.20;93.60;;;;;;4955494;29;20078;-50
2022/07/31 11:01:14;;;;;;;2.13;1.90;;;27.40;93.60;;;;;;4954541;29;20019;-55
2022/07/31 11:03:47;;;;;;;4.10;1.98;;;27.60;92.90;;;;;;4955533;29;20024;-51
2022/07/31 11:06:15;;;;;;;7.50;2.50;;;28.00;92.70;;;;;;4954254;29;20023;-52
2022/07/31 11:08:52;;;;;;;3.20;2.17;;;28.20;91.70;;;;;;4955408;29;20074;-50
2022/07/31 11:11:33;;;;;;;3.33;2.10;;;27.90;92.30;;;;;;4970345;28;20034;-50
2022/07/31 11:13:59;;;;;;;5.00;1.77;;;27.80;91.70;;;;;;4954197;28;20031;-50
2022/07/31 11:16:26;;;;;;;3.55;1.92;;;27.80;91.90;;;;;;4955423;29;20058;-50
2022/07/31 11:18:58;;;;;;;2.67;1.98;;;28.00;92.00;;;;;;4955109;29;20046;-53
2022/07/31 11:21:39;;;;;;;2.38;2.17;;;28.20;91.70;;;;;;4970027;28;20019;-54
2022/07/31 11:24:17;;;;;;;2.65;2.03;;;28.20;91.10;;;;;;4955372;29;20023;-55
2022/07/31 11:26:54;;;;;;;3.78;2.33;;;28.20;91.00;;;;;;4955299;29;20556;-57
2022/07/31 11:29:38;;;;;;;2.42;2.15;;;28.30;90.90;;;;;;4955048;29;20042;-55
2022/07/31 11:32:06;;;;;;;3.60;2.25;;;28.20;91.20;;;;;;4954195;29;20023;-53
2022/07/31 11:34:49;;;;;;;4.40;1.90;;;28.50;91.60;;;;;;4954229;29;20033;-53
2022/07/31 11:37:27;;;;;;;3.85;1.50;;;28.80;90.50;;;;;;4953885;28;20031;-54
2022/07/31 11:39:54;;;;;;;3.15;1.70;;;29.10;89.90;;;;;;4953904;29;20023;-57
2022/07/31 11:42:21;;;;;;;2.58;1.60;;;29.40;89.40;;;;;;4953949;29;20041;-57
2022/07/31 11:44:47;;;;;;;2.15;1.77;;;29.50;88.20;;;;;;4953885;29;20027;-55
2022/07/31 11:47:13;;;;;;;2.20;1.60;;;29.60;87.80;;;;;;4970062;28;20046;-56
2022/07/31 11:49:39;;;;;;;1.98;1.70;;;29.60;87.30;;;;;;4954023;29;20062;-56
2022/07/31 11:52:07;;;;;;;2.70;1.55;;;29.70;86.70;;;;;;4955171;29;20027;-57
2022/07/31 11:54:34;;;;;;;1.40;1.30;;;29.70;86.90;;;;;;4955096;29;20038;-55
2022/07/31 11:56:59;;;;;;;2.00;1.80;;;29.60;86.30;;;;;;4953758;29;20027;-55
2022/07/31 11:59:36;;;;;;;1.70;1.60;;;29.60;86.30;;;;;;4954472;29;20042;-51
2022/07/31 12:02:09;;;;;;;2.80;1.70;;;29.70;86.50;;;;;;4955967;28;20030;-55
2022/07/31 12:04:36;;;;;;;3.03;1.77;;;29.80;86.00;;;;;;4957948;29;20034;-55
2022/07/31 12:07:06;;;;;;;2.05;1.20;;;29.90;85.90;;;;;;4958662;29;20103;-55
2022/07/31 12:09:32;;;;;;;2.00;1.67;;;29.90;85.60;;;;;;4958904;29;20102;-53
2022/07/31 12:11:59;;;;;;;2.00;1.20;;;29.90;84.80;;;;;;4958642;29;20442;-54
2022/07/31 12:14:36;;;;;;;2.70;1.40;;;29.80;83.90;;;;;;4957353;28;20487;-54
2022/07/31 12:17:03;;;;;;;2.35;1.42;;;29.80;84.80;;;;;;4957182;28;20023;-51
2022/07/31 12:19:32;;;;;;;1.52;1.30;;;29.70;84.10;;;;;;4957088;29;20027;-54
2022/07/31 12:21:58;;;;;;;2.95;1.25;;;29.80;83.90;;;;;;4957211;28;20487;-52
2022/07/31 12:24:25;;;;;;;3.60;1.25;;;29.80;84.00;;;;;;4958287;29;20031;-52
2022/07/31 12:26:52;;;;;;;1.30;1.10;;;29.80;83.30;;;;;;4957024;29;20083;-54
2022/07/31 12:29:18;;;;;;;1.48;1.38;;;29.80;81.80;;;;;;4958170;29;20038;-52
2022/07/31 12:31:50;;;;;;;2.13;1.27;;;29.80;81.80;;;;;;4957525;29;20098;-57
2022/07/31 12:34:25;;;;;;;3.28;1.90;;;29.80;80.40;;;;;;4957411;29;20032;-53
2022/07/31 12:37:00;;;;;;;2.47;1.38;;;29.90;80.70;;;;;;4956924;29;20023;-57
2022/07/31 12:39:27;;;;;;;2.17;1.40;;;29.90;80.50;;;;;;4957561;29;20498;-54
2022/07/31 12:41:53;;;;;;;1.27;1.17;;;30.00;80.60;;;;;;4956688;29;20023;-54
2022/07/31 12:44:19;;;;;;;4.00;1.40;;;30.10;80.00;;;;;;4958296;29;20027;-56
2022/07/31 12:46:45;;;;;;;3.70;1.35;;;30.20;80.40;;;;;;4956706;29;20104;-56
2022/07/31 12:49:10;;;;;;;2.10;1.58;;;30.30;80.00;;;;;;4958190;29;20059;-57